Addyston, Ohio
Current Conditions -  °F | °C
As of 11:52 AM on Sunday 23 Nov 2014 (Local Time) from KCVG Reporting Station
Overcast Overcast  
Wind Chill: 58°   Ceiling: 4500
Heat Index: 58°   Visibility: 10mi
Dew Point: 40°   Wind: 12mph
Humidity: 51%   Direction: 150°SSE
Pressure: 29.85"   Gusts: NA
Location:  39.14°N, 84.71°W
Report Text: KCVG 231652Z 15010KT 10SM BKN045 OVC060 14/04 A2985 RMK AO2 SLP104 T01440044
Loading
Personal Weather Stations






























Interactive Weather Map New forecast layout! Learn more

10-Day Weather Forecast

Advertisements
Track Severe Weather on mobile